Time;durP1;ratioP1;P1;durP2;ratioP2;P2;SDS_P1;SDS_P2;PMS_P1;PMS_P2;Temp;Humidity;BMP_temperature;BMP_pressure;BME280_temperature;BME280_humidity;BME280_pressure;Samples;Min_cycle;Max_cycle;Signal;HPM_P1;HPM_P2
2022/02/12 00:01:49;;;;;;;;;12.33;11.67;13.40;33.30;;;;;;4937582;29;9798;-64
2022/02/12 00:04:14;;;;;;;;;12.33;12.33;13.40;34.00;;;;;;4937334;29;8771;-64
2022/02/12 00:06:40;;;;;;;;;10.25;10.25;13.30;33.90;;;;;;4937702;29;8775;-65
2022/02/12 00:09:06;;;;;;;;;15.33;13.67;13.30;33.70;;;;;;4937859;29;8809;-65
2022/02/12 00:11:31;;;;;;;;;14.25;14.25;13.40;34.10;;;;;;4937655;29;8889;-70
2022/02/12 00:13:57;;;;;;;;;13.00;12.00;13.40;34.50;;;;;;4936944;29;8795;-66
2022/02/12 00:16:23;;;;;;;;;19.25;15.50;13.60;33.90;;;;;;4937582;29;8791;-67
2022/02/12 00:18:49;;;;;;;;;13.00;13.00;13.60;33.70;;;;;;4937355;29;8830;-66
2022/02/12 00:21:14;;;;;;;;;19.75;16.25;13.60;33.60;;;;;;4937010;29;8797;-67
2022/02/12 00:23:40;;;;;;;;;18.50;17.00;13.90;33.70;;;;;;4937430;29;8775;-66
2022/02/12 00:26:06;;;;;;;;;19.00;17.00;14.00;33.50;;;;;;4937182;29;8803;-67
2022/02/12 00:28:32;;;;;;;;;13.75;13.25;14.30;33.70;;;;;;4937336;29;8811;-64
2022/02/12 00:30:57;;;;;;;;;16.25;14.00;14.20;33.10;;;;;;4937651;29;8985;-64
2022/02/12 00:33:23;;;;;;;;;15.00;14.75;14.20;33.00;;;;;;4941235;29;8834;-65
2022/02/12 00:35:49;;;;;;;;;14.00;13.00;14.10;33.00;;;;;;4945183;29;8824;-64
2022/02/12 00:38:15;;;;;;;;;13.00;12.00;14.00;33.00;;;;;;4937089;29;8806;-62
2022/02/12 00:40:40;;;;;;;;;17.25;13.50;14.10;34.10;;;;;;4937045;29;8792;-62
2022/02/12 00:43:06;;;;;;;;;13.00;11.25;14.10;32.30;;;;;;4937184;29;8783;-63
2022/02/12 00:45:32;;;;;;;;;12.75;12.75;14.30;32.20;;;;;;4937143;29;8783;-62
2022/02/12 00:47:58;;;;;;;;;11.50;11.25;14.00;31.90;;;;;;4937092;29;8787;-62
2022/02/12 00:50:24;;;;;;;;;15.00;12.25;14.10;31.80;;;;;;4936818;29;8767;-62
2022/02/12 00:52:49;;;;;;;;;12.25;11.50;14.30;31.90;;;;;;4936991;29;8889;-63
2022/02/12 00:55:15;;;;;;;;;14.50;13.50;14.40;31.50;;;;;;4937036;29;8775;-62
2022/02/12 00:57:41;;;;;;;;;14.50;14.50;14.30;31.50;;;;;;4937157;29;8827;-62
2022/02/12 01:00:07;;;;;;;;;11.25;10.75;14.40;31.70;;;;;;4937139;29;8829;-61
2022/02/12 01:02:33;;;;;;;;;15.25;15.25;14.30;31.60;;;;;;4937022;29;8913;-62
2022/02/12 01:04:59;;;;;;;;;15.75;14.50;14.50;31.60;;;;;;4936951;29;8794;-63
2022/02/12 01:07:24;;;;;;;;;20.00;14.75;14.60;31.60;;;;;;4936904;29;8862;-62
2022/02/12 01:09:50;;;;;;;;;15.00;14.00;14.60;31.50;;;;;;4936934;29;8791;-62
2022/02/12 01:12:16;;;;;;;;;12.00;11.33;14.60;31.40;;;;;;4937169;29;8775;-63
2022/02/12 01:14:42;;;;;;;;;8.00;8.00;14.50;31.10;;;;;;4936962;29;8772;-62
2022/02/12 01:17:10;;;;;;;;;10.00;9.00;14.20;30.90;;;;;;4937124;29;8783;-62
2022/02/12 01:19:36;;;;;;;;;10.00;8.00;14.20;31.50;;;;;;4936958;29;8925;-63
2022/02/12 01:22:02;;;;;;;;;8.00;8.00;14.10;31.60;;;;;;4936978;29;8775;-62
2022/02/12 01:24:28;;;;;;;;;10.00;8.33;14.20;31.60;;;;;;4936813;29;8877;-62
2022/02/12 01:26:56;;;;;;;;;10.67;9.00;13.90;32.00;;;;;;4939222;29;8893;-63
2022/02/12 01:29:21;;;;;;;;;9.33;8.00;13.70;32.20;;;;;;4940715;29;8782;-61
2022/02/12 01:31:47;;;;;;;;;3.67;3.67;13.30;32.80;;;;;;4940338;29;8823;-62
2022/02/12 01:34:13;;;;;;;;;5.00;5.00;13.20;32.60;;;;;;4940519;29;8794;-62
2022/02/12 01:36:39;;;;;;;;;7.00;7.00;12.70;33.20;;;;;;4940451;29;8786;-61
2022/02/12 01:39:06;;;;;;;;;9.50;8.50;12.70;33.60;;;;;;4940613;29;8842;-61
2022/02/12 01:41:32;;;;;;;;;6.33;6.33;12.80;34.00;;;;;;4940301;29;8809;-62
2022/02/12 01:44:06;;;;;;;;;7.33;6.33;13.20;33.30;;;;;;4940373;29;8791;-64
2022/02/12 01:46:33;;;;;;;;;7.00;7.00;13.30;32.80;;;;;;4940499;29;8786;-61
2022/02/12 01:48:59;;;;;;;;;6.00;6.00;13.30;32.30;;;;;;4940515;29;8843;-62
2022/02/12 01:51:26;;;;;;;;;6.67;5.33;13.10;32.40;;;;;;4940171;29;9469;-61
2022/02/12 01:53:54;;;;;;;;;5.00;5.00;13.30;32.40;;;;;;4940455;29;8783;-61
2022/02/12 01:56:20;;;;;;;;;6.67;6.67;13.40;32.30;;;;;;4940381;29;8779;-62
2022/02/12 01:58:46;;;;;;;;;9.25;8.75;13.50;31.60;;;;;;4940301;29;9449;-63
2022/02/12 02:01:13;;;;;;;;;10.33;8.33;13.60;31.70;;;;;;4940297;29;8795;-62
2022/02/12 02:03:39;;;;;;;;;6.67;6.67;13.90;31.70;;;;;;4940016;29;8898;-63
2022/02/12 02:06:06;;;;;;;;;8.00;5.00;13.90;30.90;;;;;;4940243;29;8783;-62
2022/02/12 02:08:32;;;;;;;;;9.00;6.33;14.00;30.70;;;;;;4939841;29;8790;-62
2022/02/12 02:10:58;;;;;;;;;5.33;5.33;13.90;30.40;;;;;;4939811;29;8811;-62
2022/02/12 02:13:26;;;;;;;;;6.00;6.00;13.90;30.70;;;;;;4940129;29;8767;-63
2022/02/12 02:15:52;;;;;;;;;9.67;7.67;14.00;30.90;;;;;;4940031;29;8771;-62
2022/02/12 02:18:18;;;;;;;;;7.00;7.00;14.10;30.60;;;;;;4939620;29;8827;-62
2022/02/12 02:20:44;;;;;;;;;6.00;6.00;14.00;30.20;;;;;;4940009;29;8775;-62
2022/02/12 02:23:10;;;;;;;;;7.33;6.33;14.10;30.60;;;;;;4939599;29;8795;-61
2022/02/12 02:25:36;;;;;;;;;7.00;7.00;14.20;30.40;;;;;;4939634;29;8939;-62
2022/02/12 02:28:02;;;;;;;;;7.00;7.00;14.40;30.30;;;;;;4939606;29;8798;-63
2022/02/12 02:30:28;;;;;;;;;7.00;7.00;14.40;30.00;;;;;;4939660;29;8809;-63
2022/02/12 02:32:54;;;;;;;;;9.00;8.33;14.30;30.00;;;;;;4939420;29;8830;-61
2022/02/12 02:35:22;;;;;;;;;9.67;8.67;13.90;30.10;;;;;;4939406;29;8811;-61
2022/02/12 02:37:49;;;;;;;;;5.00;5.00;13.70;30.50;;;;;;4938959;29;8905;-61
2022/02/12 02:40:17;;;;;;;;;7.00;7.00;13.80;30.80;;;;;;4939662;29;8794;-61
2022/02/12 02:42:45;;;;;;;;;7.00;7.00;13.70;31.10;;;;;;4939402;29;8849;-61
2022/02/12 02:45:13;;;;;;;;;5.33;4.00;13.40;31.20;;;;;;4939521;29;8901;-61
2022/02/12 02:47:42;;;;;;;;;8.00;7.00;12.80;32.20;;;;;;4939021;29;8782;-62
2022/02/12 02:58:42;;;;;;;;;6.67;6.67;12.50;34.20;;;;;;4939099;29;8815;-64
2022/02/12 03:01:12;;;;;;;;;4.00;4.00;12.50;33.90;;;;;;4938899;29;8799;-61
2022/02/12 03:03:39;;;;;;;;;8.00;5.67;12.50;33.80;;;;;;4939005;29;8795;-63
2022/02/12 03:06:06;;;;;;;;;7.33;5.67;12.40;34.30;;;;;;4939211;29;8771;-62
2022/02/12 03:08:32;;;;;;;;;7.00;7.00;12.40;34.40;;;;;;4938910;29;9441;-63
2022/02/12 03:10:59;;;;;;;;;6.00;6.00;12.40;34.50;;;;;;4939049;29;9003;-62
2022/02/12 03:13:25;;;;;;;;;3.00;3.00;12.30;34.70;;;;;;4938784;29;8881;-63
2022/02/12 03:15:51;;;;;;;;;5.00;4.75;12.10;35.30;;;;;;4938679;29;8894;-63
2022/02/12 03:18:17;;;;;;;;;5.33;5.33;12.20;35.50;;;;;;4938646;29;9561;-62
2022/02/12 03:20:43;;;;;;;;;6.00;6.00;12.40;35.00;;;;;;4938857;29;8767;-62
2022/02/12 03:23:09;;;;;;;;;5.75;5.75;12.60;34.90;;;;;;4938528;29;9214;-62
2022/02/12 03:25:35;;;;;;;;;5.50;5.50;12.50;35.10;;;;;;4938763;29;8849;-62
2022/02/12 03:28:02;;;;;;;;;7.00;4.00;12.40;34.90;;;;;;4938520;29;9418;-64
2022/02/12 03:30:31;;;;;;;;;8.00;6.00;12.20;35.00;;;;;;4938754;29;8814;-62
2022/02/12 03:32:57;;;;;;;;;8.00;8.00;12.10;35.20;;;;;;4938239;29;8843;-63
2022/02/12 03:35:23;;;;;;;;;6.00;6.00;12.00;35.70;;;;;;4938609;29;8782;-62
2022/02/12 03:37:50;;;;;;;;;6.00;6.00;11.90;36.30;;;;;;4938448;29;8865;-62
2022/02/12 03:40:17;;;;;;;;;7.50;6.25;11.80;36.40;;;;;;4938464;29;8878;-63
2022/02/12 03:42:42;;;;;;;;;9.00;7.75;11.70;36.30;;;;;;4938236;29;8797;-63
2022/02/12 03:45:09;;;;;;;;;5.75;5.75;11.70;36.80;;;;;;4938373;29;8901;-63
2022/02/12 03:47:35;;;;;;;;;5.25;5.25;11.90;36.30;;;;;;4938019;29;8799;-62
2022/02/12 03:50:02;;;;;;;;;6.50;4.00;11.70;36.00;;;;;;4937828;29;8783;-62
2022/02/12 03:52:28;;;;;;;;;6.50;6.50;11.70;36.40;;;;;;4938276;29;8782;-63
2022/02/12 03:54:54;;;;;;;;;3.50;3.50;11.90;36.60;;;;;;4938264;29;9664;-62
2022/02/12 03:57:20;;;;;;;;;7.50;7.50;12.00;36.10;;;;;;4938096;29;8791;-62
2022/02/12 03:59:46;;;;;;;;;7.00;7.00;11.90;35.90;;;;;;4938019;29;8794;-63
2022/02/12 04:02:11;;;;;;;;;5.50;5.50;12.10;35.70;;;;;;4937834;29;8802;-61
2022/02/12 04:04:37;;;;;;;;;7.00;7.00;12.40;35.40;;;;;;4938056;29;8802;-63
2022/02/12 04:07:03;;;;;;;;;7.75;7.75;12.20;35.30;;;;;;4937912;29;8779;-63
2022/02/12 04:09:30;;;;;;;;;9.00;7.25;12.20;35.60;;;;;;4937974;29;8799;-61
2022/02/12 04:11:56;;;;;;;;;7.00;7.00;12.40;35.60;;;;;;4937767;29;8853;-63
2022/02/12 04:14:22;;;;;;;;;6.00;6.00;12.50;35.10;;;;;;4937611;29;8775;-61
2022/02/12 04:16:47;;;;;;;;;9.75;9.25;12.80;34.90;;;;;;4936517;29;8825;-64
2022/02/12 04:19:13;;;;;;;;;6.50;6.50;13.10;34.40;;;;;;4937737;29;8806;-62
2022/02/12 04:21:39;;;;;;;;;10.50;10.50;12.90;33.80;;;;;;4937454;29;8771;-62
2022/02/12 04:24:05;;;;;;;;;8.00;7.00;13.20;34.10;;;;;;4937746;29;8794;-62
2022/02/12 04:26:31;;;;;;;;;8.00;8.00;13.00;33.80;;;;;;4937754;29;9553;-62
2022/02/12 04:28:56;;;;;;;;;6.50;6.50;12.90;33.90;;;;;;4937421;29;8850;-61
2022/02/12 04:31:23;;;;;;;;;7.00;7.00;13.00;33.80;;;;;;4937597;29;8803;-61
2022/02/12 04:33:49;;;;;;;;;7.50;7.50;13.10;33.40;;;;;;4937339;29;8810;-61
2022/02/12 04:36:15;;;;;;;;;8.75;8.75;13.00;33.90;;;;;;4937658;29;8783;-61
2022/02/12 04:38:41;;;;;;;;;8.25;8.25;13.20;33.70;;;;;;4936251;29;9481;-61
2022/02/12 04:41:07;;;;;;;;;10.25;10.25;13.00;33.40;;;;;;4937487;29;8853;-61
2022/02/12 04:43:34;;;;;;;;;11.00;9.25;12.90;33.70;;;;;;4937185;29;8778;-61
2022/02/12 04:46:00;;;;;;;;;10.50;7.75;12.70;33.90;;;;;;4937216;29;8794;-61
2022/02/12 04:48:26;;;;;;;;;7.00;7.00;12.90;33.90;;;;;;4937171;29;8815;-61
2022/02/12 04:50:52;;;;;;;;;8.00;8.00;12.80;33.90;;;;;;4937178;29;8795;-61
2022/02/12 04:53:17;;;;;;;;;9.25;9.25;12.90;34.00;;;;;;4937132;29;8929;-62
2022/02/12 04:55:43;;;;;;;;;5.50;5.50;12.80;34.00;;;;;;4937101;29;8791;-61
2022/02/12 04:58:09;;;;;;;;;8.50;8.50;12.80;34.20;;;;;;4936982;29;8837;-61
2022/02/12 05:00:35;;;;;;;;;9.75;9.75;12.90;34.00;;;;;;4940835;29;8803;-61
2022/02/12 05:03:01;;;;;;;;;10.75;10.75;13.00;33.90;;;;;;4943408;29;8845;-61
2022/02/12 05:05:26;;;;;;;;;7.75;7.75;13.20;33.70;;;;;;4943406;29;8775;-61
2022/02/12 05:07:52;;;;;;;;;8.50;8.50;13.20;33.10;;;;;;4943323;29;8767;-61
2022/02/12 05:10:18;;;;;;;;;10.50;9.00;12.90;33.40;;;;;;4943244;29;8799;-61
2022/02/12 05:12:44;;;;;;;;;9.75;9.75;12.50;33.80;;;;;;4943570;29;8790;-61
2022/02/12 05:15:10;;;;;;;;;10.33;8.00;12.20;34.90;;;;;;4943290;29;9463;-61
2022/02/12 05:17:35;;;;;;;;;11.00;7.50;12.30;35.10;;;;;;4943415;29;8821;-61
2022/02/12 05:20:01;;;;;;;;;10.00;10.00;12.30;35.40;;;;;;4943174;29;9488;-61
2022/02/12 05:22:27;;;;;;;;;9.50;9.50;11.80;35.80;;;;;;4943282;29;8795;-61
2022/02/12 05:24:53;;;;;;;;;7.00;6.67;11.70;36.30;;;;;;4943437;29;8791;-61
2022/02/12 05:27:19;;;;;;;;;8.00;8.00;11.80;36.30;;;;;;4943200;29;8779;-61
2022/02/12 05:29:45;;;;;;;;;8.75;8.00;12.00;36.10;;;;;;4943174;29;8787;-61
2022/02/12 05:32:11;;;;;;;;;8.75;8.75;11.60;36.80;;;;;;4943164;29;8861;-62
2022/02/12 05:34:36;;;;;;;;;8.25;8.25;11.20;37.50;;;;;;4943334;29;8775;-61
2022/02/12 05:37:02;;;;;;;;;8.50;8.50;11.30;37.70;;;;;;4943132;29;8800;-61
2022/02/12 05:39:28;;;;;;;;;10.50;7.00;11.80;37.20;;;;;;4943297;29;8827;-61
2022/02/12 05:41:54;;;;;;;;;7.50;7.50;11.70;36.90;;;;;;4943132;29;8854;-63
2022/02/12 05:44:19;;;;;;;;;9.50;8.75;11.90;36.60;;;;;;4943045;29;8791;-63
2022/02/12 05:46:45;;;;;;;;;9.00;9.00;11.90;36.40;;;;;;4943042;29;8813;-62
2022/02/12 05:49:11;;;;;;;;;9.75;9.25;12.10;36.40;;;;;;4943276;29;8871;-63
2022/02/12 05:51:37;;;;;;;;;10.25;9.00;12.10;36.00;;;;;;4942975;29;8799;-63
2022/02/12 05:54:05;;;;;;;;;10.00;10.00;12.30;36.00;;;;;;4942990;29;8806;-63
2022/02/12 05:56:32;;;;;;;;;10.25;9.25;12.20;36.20;;;;;;4942882;29;8779;-63
2022/02/12 05:58:58;;;;;;;;;11.75;11.75;12.50;35.90;;;;;;4943059;29;9501;-63
2022/02/12 06:01:25;;;;;;;;;13.50;12.00;12.60;35.50;;;;;;4943264;29;8925;-63
2022/02/12 06:03:50;;;;;;;;;10.00;10.00;12.70;35.20;;;;;;4943183;29;8794;-61
2022/02/12 06:06:17;;;;;;;;;8.00;7.25;12.50;35.50;;;;;;4942876;29;8910;-63
2022/02/12 06:08:43;;;;;;;;;9.00;7.75;12.70;35.20;;;;;;4942868;29;8809;-63
2022/02/12 06:11:09;;;;;;;;;16.25;13.50;12.70;35.10;;;;;;4941889;29;8825;-62
2022/02/12 06:13:35;;;;;;;;;12.75;10.75;12.70;35.10;;;;;;4939855;29;8771;-63
2022/02/12 06:16:01;;;;;;;;;17.50;15.00;13.00;35.00;;;;;;4939728;29;9455;-63
2022/02/12 06:18:27;;;;;;;;;15.75;15.75;13.00;34.80;;;;;;4939677;29;8929;-63
2022/02/12 06:20:53;;;;;;;;;20.75;18.50;13.10;34.70;;;;;;4939643;29;8863;-63
2022/02/12 06:23:21;;;;;;;;;18.25;16.50;13.20;34.50;;;;;;4939877;29;8806;-63
2022/02/12 06:25:48;;;;;;;;;21.75;20.75;13.20;34.00;;;;;;4939598;29;9239;-62
2022/02/12 06:28:17;;;;;;;;;21.50;20.00;13.30;33.80;;;;;;4939530;29;8779;-62
2022/02/12 06:30:42;;;;;;;;;16.00;16.00;13.10;34.00;;;;;;4939646;29;8933;-62
2022/02/12 06:33:08;;;;;;;;;20.00;16.25;13.10;34.00;;;;;;4939377;29;8921;-62
2022/02/12 06:35:34;;;;;;;;;16.00;14.75;12.90;34.10;;;;;;4939342;29;8813;-63
2022/02/12 06:38:00;;;;;;;;;19.00;17.75;12.80;34.30;;;;;;4939550;29;8835;-63
2022/02/12 06:40:26;;;;;;;;;15.00;15.00;12.90;34.60;;;;;;4944766;28;8886;-62
2022/02/12 06:42:52;;;;;;;;;20.50;18.00;13.00;34.40;;;;;;4953112;28;8818;-63
2022/02/12 06:45:18;;;;;;;;;23.75;23.75;13.10;34.30;;;;;;4939121;29;8837;-63
2022/02/12 06:47:43;;;;;;;;;33.75;31.50;13.10;34.20;;;;;;4939175;29;8779;-63
2022/02/12 06:50:09;;;;;;;;;23.25;23.00;13.00;34.50;;;;;;4939100;29;8791;-63
2022/02/12 06:52:36;;;;;;;;;31.75;30.00;13.00;34.50;;;;;;4939037;29;9461;-63
2022/02/12 06:55:02;;;;;;;;;41.00;34.75;12.90;34.50;;;;;;4938839;29;8798;-63
2022/02/12 06:57:27;;;;;;;;;34.00;33.00;13.00;34.40;;;;;;4938673;29;8783;-64
2022/02/12 06:59:53;;;;;;;;;37.00;35.50;13.10;34.40;;;;;;4938797;29;8795;-64
2022/02/12 07:02:19;;;;;;;;;47.75;40.25;13.20;34.10;;;;;;4938857;29;8791;-63
2022/02/12 07:04:45;;;;;;;;;55.00;43.50;13.40;34.20;;;;;;4939033;29;8801;-63
2022/02/12 07:07:11;;;;;;;;;50.00;43.00;13.40;33.90;;;;;;4939128;29;8786;-63
2022/02/12 07:09:37;;;;;;;;;46.50;42.00;13.40;33.90;;;;;;4938713;29;8821;-64
2022/02/12 07:12:03;;;;;;;;;54.75;45.00;13.40;34.10;;;;;;4942526;29;8807;-63
2022/02/12 07:14:29;;;;;;;;;50.50;42.00;13.40;34.20;;;;;;4940968;28;8821;-63
2022/02/12 07:16:55;;;;;;;;;46.00;40.00;13.40;34.00;;;;;;4957604;28;8797;-63
2022/02/12 07:19:20;;;;;;;;;35.25;32.25;13.20;34.30;;;;;;4956676;28;8824;-63
2022/02/12 07:21:46;;;;;;;;;33.50;30.25;13.00;34.20;;;;;;4954130;28;8796;-63
2022/02/12 07:24:12;;;;;;;;;31.25;29.25;13.00;34.40;;;;;;4951105;28;8786;-62
2022/02/12 07:26:38;;;;;;;;;33.75;30.00;12.90;34.70;;;;;;4938553;29;8783;-63
2022/02/12 07:29:03;;;;;;;;;25.00;25.00;12.90;35.30;;;;;;4938349;29;8909;-62
2022/02/12 07:31:32;;;;;;;;;39.25;33.75;13.20;34.90;;;;;;4938227;29;9710;-62
2022/02/12 07:33:57;;;;;;;;;41.25;37.00;13.30;34.80;;;;;;4946164;28;8899;-62
2022/02/12 07:36:23;;;;;;;;;47.75;39.50;13.20;34.50;;;;;;4957455;28;9403;-62
2022/02/12 07:38:49;;;;;;;;;51.00;43.25;13.10;34.20;;;;;;4957185;28;8816;-62
2022/02/12 07:41:16;;;;;;;;;43.00;38.75;13.20;34.50;;;;;;4957212;28;9454;-62
2022/02/12 07:43:45;;;;;;;;;45.75;39.00;13.10;34.80;;;;;;4957455;28;8822;-62
2022/02/12 07:46:12;;;;;;;;;36.50;33.75;13.20;34.50;;;;;;4957199;28;8819;-61
2022/02/12 07:48:38;;;;;;;;;34.25;30.50;13.30;34.70;;;;;;4957510;28;8827;-61
2022/02/12 07:51:04;;;;;;;;;19.50;18.00;13.10;34.90;;;;;;4957130;28;9419;-62
2022/02/12 07:53:30;;;;;;;;;35.25;31.50;12.80;34.80;;;;;;4957054;28;8780;-61
2022/02/12 07:55:55;;;;;;;;;36.75;34.25;12.80;35.60;;;;;;4957227;28;8886;-61
2022/02/12 07:58:21;;;;;;;;;26.50;24.50;12.80;35.50;;;;;;4954587;28;8912;-60
2022/02/12 08:00:47;;;;;;;;;22.75;22.75;12.80;35.30;;;;;;4954830;28;8805;-61
2022/02/12 08:03:16;;;;;;;;;10.25;10.25;12.90;35.30;;;;;;4940608;29;8807;-61
2022/02/12 08:05:41;;;;;;;;;19.75;17.50;12.90;35.20;;;;;;4943319;28;9510;-61
2022/02/12 08:08:07;;;;;;;;;27.50;24.25;12.50;35.50;;;;;;4957021;28;8801;-61
2022/02/12 08:13:25;;;;;;;;;24.50;24.50;12.70;35.40;;;;;;4956060;28;8811;-61
2022/02/12 08:15:51;;;;;;;;;40.75;36.00;12.80;35.60;;;;;;4956958;28;8784;-61
2022/02/12 08:18:16;;;;;;;;;33.00;31.25;12.70;35.60;;;;;;4956623;28;9439;-61
2022/02/12 08:20:42;;;;;;;;;28.75;28.00;12.80;36.00;;;;;;4939864;28;8803;-61
2022/02/12 08:23:09;;;;;;;;;12.00;11.50;13.10;35.60;;;;;;4950406;28;9442;-61
2022/02/12 08:25:35;;;;;;;;;22.25;21.50;13.00;35.30;;;;;;4944167;28;8799;-61
2022/02/12 08:28:01;;;;;;;;;27.00;26.00;13.10;35.60;;;;;;4948267;28;8796;-63
2022/02/12 08:30:27;;;;;;;;;24.00;23.00;13.10;35.60;;;;;;4938814;28;8816;-67
2022/02/12 08:32:53;;;;;;;;;17.00;15.00;13.20;35.10;;;;;;4946460;28;8854;-70
2022/02/12 08:35:19;;;;;;;;;35.50;31.25;13.10;35.30;;;;;;4937223;29;8779;-64
2022/02/12 08:37:45;;;;;;;;;13.25;13.00;13.20;35.40;;;;;;4952044;28;8882;-64
2022/02/12 08:40:20;;;;;;;;;21.25;17.75;13.10;35.40;;;;;;4957443;28;9607;-67
2022/02/12 08:42:50;;;;;;;;;19.00;18.25;13.20;35.20;;;;;;4970908;28;8798;-65
2022/02/12 08:45:16;;;;;;;;;14.00;14.00;13.40;35.30;;;;;;4956234;28;8788;-62
2022/02/12 08:47:44;;;;;;;;;22.25;21.75;13.50;35.80;;;;;;4956238;28;8796;-63
2022/02/12 08:50:10;;;;;;;;;25.00;23.50;13.60;34.70;;;;;;4956520;28;8784;-64
2022/02/12 08:52:37;;;;;;;;;28.50;22.75;13.30;35.10;;;;;;4956518;28;8850;-67
2022/02/12 08:55:04;;;;;;;;;22.00;20.25;13.40;36.10;;;;;;4956181;28;8850;-64
2022/02/12 08:57:29;;;;;;;;;10.00;9.25;13.40;34.50;;;;;;4953185;28;9433;-66
2022/02/12 08:59:55;;;;;;;;;13.25;13.25;13.40;34.60;;;;;;4938970;28;8917;-62
2022/02/12 09:02:21;;;;;;;;;21.25;18.00;13.20;35.00;;;;;;4941474;29;8800;-63
2022/02/12 09:04:47;;;;;;;;;21.75;21.75;13.20;35.30;;;;;;4946735;29;8810;-62
2022/02/12 09:07:13;;;;;;;;;12.50;12.00;13.60;35.10;;;;;;4951137;29;8854;-61
2022/02/12 09:09:42;;;;;;;;;14.50;13.25;13.80;35.10;;;;;;4959227;28;8798;-61
2022/02/12 09:12:11;;;;;;;;;20.75;17.00;13.20;35.50;;;;;;4975192;28;8849;-61
2022/02/12 09:14:37;;;;;;;;;21.50;20.25;13.50;35.10;;;;;;4975325;28;8847;-61
2022/02/12 09:17:05;;;;;;;;;18.25;18.25;13.60;34.80;;;;;;4975321;28;8860;-61
2022/02/12 09:19:32;;;;;;;;;21.75;20.75;13.80;35.50;;;;;;4975167;28;8841;-61
2022/02/12 09:21:57;;;;;;;;;19.00;18.00;14.10;34.40;;;;;;4975224;28;8829;-60
2022/02/12 09:24:23;;;;;;;;;23.50;19.25;14.30;34.10;;;;;;4975086;28;8789;-60
2022/02/12 09:26:49;;;;;;;;;25.25;24.75;14.40;33.80;;;;;;4975193;28;8766;-60
2022/02/12 09:29:15;;;;;;;;;22.75;20.00;14.40;33.00;;;;;;4975130;28;8837;-61
2022/02/12 09:31:40;;;;;;;;;24.75;22.50;14.30;33.50;;;;;;4974597;28;8782;-60
2022/02/12 09:34:08;;;;;;;;;27.25;23.75;14.40;33.70;;;;;;4974964;28;8794;-60
2022/02/12 09:36:34;;;;;;;;;17.75;15.75;14.40;33.60;;;;;;4961626;28;8797;-62
2022/02/12 09:39:00;;;;;;;;;22.25;22.00;14.70;33.90;;;;;;4954968;28;8840;-62
2022/02/12 09:41:27;;;;;;;;;21.50;19.25;14.90;32.70;;;;;;4974950;28;8790;-62
2022/02/12 09:43:54;;;;;;;;;26.75;22.00;14.90;32.10;;;;;;4975153;28;8778;-62
2022/02/12 09:46:32;;;;;;;;;26.00;24.00;15.10;32.50;;;;;;4975269;28;8818;-62
2022/02/12 09:48:59;;;;;;;;;24.00;19.50;15.00;32.90;;;;;;4978764;28;8879;-63
2022/02/12 09:51:27;;;;;;;;;22.25;20.00;15.10;32.90;;;;;;4963279;28;9399;-63
2022/02/12 09:53:53;;;;;;;;;24.00;21.50;15.00;32.90;;;;;;4958917;28;8768;-66
2022/02/12 09:56:19;;;;;;;;;19.00;17.25;15.10;32.70;;;;;;4959305;28;8775;-65
2022/02/12 09:58:46;;;;;;;;;21.00;21.00;14.90;32.50;;;;;;4953600;28;8809;-63
2022/02/12 10:01:11;;;;;;;;;19.50;19.50;15.20;32.60;;;;;;4958603;28;8923;-65
2022/02/12 10:03:41;;;;;;;;;29.00;22.75;15.30;32.70;;;;;;4958729;28;8903;-66
2022/02/12 10:06:07;;;;;;;;;20.75;20.75;15.50;32.40;;;;;;4958641;28;8793;-68
2022/02/12 10:08:37;;;;;;;;;26.50;22.75;15.60;31.80;;;;;;4951096;28;8796;-62
2022/02/12 10:11:19;;;;;;;;;21.75;20.25;15.80;31.30;;;;;;4976720;28;8805;-63
2022/02/12 10:13:45;;;;;;;;;23.00;22.25;15.10;31.10;;;;;;4978630;28;8782;-64
2022/02/12 10:16:11;;;;;;;;;21.50;21.50;14.90;31.70;;;;;;4978267;28;8792;-65
2022/02/12 10:18:41;;;;;;;;;21.75;18.25;15.10;32.30;;;;;;4978025;28;8814;-66
2022/02/12 10:21:09;;;;;;;;;21.25;20.75;15.40;31.50;;;;;;4978052;28;8797;-68
2022/02/12 10:23:39;;;;;;;;;26.00;19.75;15.70;31.50;;;;;;4974314;28;8867;-67
2022/02/12 10:26:05;;;;;;;;;22.50;20.00;16.40;31.30;;;;;;4946993;28;9498;-66
2022/02/12 10:28:35;;;;;;;;;20.50;20.00;16.70;29.70;;;;;;4946418;28;8816;-64
2022/02/12 10:31:02;;;;;;;;;25.00;21.00;16.80;28.70;;;;;;4947895;29;8791;-65
2022/02/12 10:33:30;;;;;;;;;21.00;21.00;17.10;28.40;;;;;;4946496;28;8859;-64
2022/02/12 10:35:58;;;;;;;;;22.25;22.00;17.30;28.30;;;;;;4949950;28;8831;-64
2022/02/12 10:38:29;;;;;;;;;26.75;25.50;17.50;28.50;;;;;;4947246;28;9447;-66
2022/02/12 10:41:12;;;;;;;;;23.33;23.33;17.70;28.30;;;;;;4964200;28;8800;-65
2022/02/12 10:43:39;;;;;;;;;26.67;25.00;19.40;27.60;;;;;;4958376;28;8804;-62
2022/02/12 10:46:06;;;;;;;;;27.00;25.67;24.20;23.70;;;;;;4958316;28;8784;-63
2022/02/12 10:48:38;;;;;;;;;21.00;19.67;28.10;20.90;;;;;;4958169;28;8923;-66
2022/02/12 10:51:14;;;;;;;;;23.67;22.33;30.70;18.10;;;;;;4958322;28;8800;-66
2022/02/12 10:54:07;;;;;;;;;23.00;20.67;31.50;16.70;;;;;;4958294;28;8863;-67
2022/02/12 10:56:53;;;;;;;;;17.00;17.00;31.60;16.00;;;;;;4957812;28;11663;-67
2022/02/12 10:59:21;;;;;;;;;17.33;17.33;27.80;17.30;;;;;;4957508;28;11600;-66
2022/02/12 11:01:47;;;;;;;;;12.33;12.33;25.20;18.50;;;;;;4958279;28;8839;-65
2022/02/12 11:04:18;;;;;;;;;17.67;17.33;23.20;20.10;;;;;;4957963;28;8791;-64
2022/02/12 11:06:46;;;;;;;;;19.33;19.33;23.00;20.40;;;;;;4958173;28;8764;-66
2022/02/12 11:09:12;;;;;;;;;19.00;18.67;23.50;20.70;;;;;;4960570;28;8786;-62
2022/02/12 11:11:38;;;;;;;;;18.67;18.67;26.60;19.00;;;;;;4977386;28;8856;-65
2022/02/12 11:14:06;;;;;;;;;29.67;28.67;27.60;17.70;;;;;;4977371;28;8793;-65
2022/02/12 11:16:34;;;;;;;;;33.00;31.33;28.90;16.50;;;;;;4977327;28;8816;-65
2022/02/12 11:19:01;;;;;;;;;19.33;19.33;29.80;16.50;;;;;;4977163;28;8828;-63
2022/02/12 11:21:27;;;;;;;;;15.00;15.00;30.70;16.00;;;;;;4965268;28;8792;-66
2022/02/12 11:24:05;;;;;;;;;12.67;12.67;31.20;16.00;;;;;;4944063;29;11574;-64
2022/02/12 11:26:46;;;;;;;;;14.33;14.33;31.20;15.40;;;;;;4944216;28;11575;-64
2022/02/12 11:29:36;;;;;;;;;17.00;17.00;31.90;15.20;;;;;;4941839;28;12333;-67
2022/02/12 11:32:23;;;;;;;;;12.25;12.25;32.60;15.00;;;;;;4940163;28;11600;-64
2022/02/12 11:35:06;;;;;;;;;11.00;11.00;33.30;14.60;;;;;;4947330;28;11645;-64
2022/02/12 11:37:36;;;;;;;;;15.25;15.25;33.60;13.90;;;;;;4943705;28;11558;-67
2022/02/12 11:40:30;;;;;;;;;14.00;14.00;32.40;14.30;;;;;;4960780;28;11629;-66
2022/02/12 11:42:58;;;;;;;;;18.67;18.67;29.50;15.20;;;;;;4974800;28;11579;-68
2022/02/12 11:45:31;;;;;;;;;17.33;17.33;26.70;16.90;;;;;;4954597;28;8887;-66
2022/02/12 11:48:26;;;;;;;;;16.00;16.00;25.70;18.20;;;;;;4946630;28;8817;-65
2022/02/12 11:51:06;;;;;;;;;16.33;16.33;26.10;17.80;;;;;;4916675;29;12301;-66
2022/02/12 11:53:56;;;;;;;;;18.00;18.00;25.40;18.40;;;;;;4916861;29;8934;-66
2022/02/12 11:56:22;;;;;;;;;21.67;21.67;27.90;18.00;;;;;;4905874;29;8799;-65
2022/02/12 11:58:53;;;;;;;;;12.00;10.00;29.60;16.60;;;;;;4906184;29;8852;-66
2022/02/12 12:01:42;;;;;;;;;15.33;15.33;32.10;15.50;;;;;;4897700;29;12237;-63
2022/02/12 12:04:22;;;;;;;;;17.33;17.33;31.70;15.10;;;;;;4897730;29;12305;-65
2022/02/12 12:07:03;;;;;;;;;15.00;15.00;32.90;15.40;;;;;;4897623;29;11788;-66
2022/02/12 12:09:35;;;;;;;;;15.50;15.50;36.30;14.30;;;;;;4902563;29;11890;-64
2022/02/12 12:12:22;;;;;;;;;16.75;16.75;37.80;13.00;;;;;;4909196;29;11607;-64
2022/02/12 12:15:11;;;;;;;;;22.00;22.00;38.30;12.60;;;;;;4897692;29;11677;-65
2022/02/12 12:17:37;;;;;;;;;14.75;14.75;38.70;11.90;;;;;;4897319;29;11595;-64
2022/02/12 12:20:03;;;;;;;;;15.75;14.75;37.40;11.90;;;;;;4897346;29;11615;-63
2022/02/12 12:22:29;;;;;;;;;15.00;15.00;37.80;12.50;;;;;;4897435;29;8803;-66
2022/02/12 12:24:59;;;;;;;;;13.00;13.00;39.40;12.20;;;;;;4896867;29;11582;-67
2022/02/12 12:27:24;;;;;;;;;14.00;14.00;37.00;10.80;;;;;;4919724;29;11579;-66
2022/02/12 12:32:34;;;;;;;;;13.25;13.25;34.50;13.30;;;;;;4937145;29;9453;-63
2022/02/12 12:35:05;;;;;;;;;11.50;11.50;35.90;13.00;;;;;;4936986;29;11584;-64
2022/02/12 12:37:49;;;;;;;;;14.25;14.25;35.90;12.40;;;;;;4937375;29;11638;-64
2022/02/12 12:40:16;;;;;;;;;13.25;13.25;36.30;12.60;;;;;;4959137;28;11550;-63
2022/02/12 12:42:41;;;;;;;;;13.00;13.00;37.10;12.20;;;;;;4974313;28;11545;-63
2022/02/12 12:45:12;;;;;;;;;12.50;12.50;37.60;12.00;;;;;;4943184;28;11647;-62
2022/02/12 12:47:49;;;;;;;;;13.25;13.25;38.10;12.10;;;;;;4944761;28;8816;-63
2022/02/12 12:50:15;;;;;;;;;16.25;16.25;38.60;11.60;;;;;;4948284;28;11635;-63
2022/02/12 12:52:40;;;;;;;;;15.75;15.75;38.60;11.20;;;;;;4943384;28;11602;-63
2022/02/12 12:55:10;;;;;;;;;11.00;11.00;38.00;11.30;;;;;;4946411;29;11585;-63
2022/02/12 12:57:42;;;;;;;;;15.25;15.00;37.60;11.60;;;;;;4944548;28;8800;-63
2022/02/12 13:00:11;;;;;;;;;14.75;14.75;38.60;11.60;;;;;;4939611;28;11682;-62